Licenciado Benito Juarez International Airport
MMMX : now visible

Airfield :











YOU CAN JOIN US ON...

 
LOGIN :

Register | Disclaimer

   EN    FR    IT 

 









Legend :    VFR   Marginal VFR   IFR   Intensive IFR   Very Intensive IFR
Visi :
Ceiling :
>= 8 km
>= 3000ft
5 to 8 km
1000 to 3000 ft
1500m to 5 km
500 to 1000 ft
800 to 1500m
200 to 500 ft
< 800m
< 200 ft
Symbols :   Thunderstorms  Fog  Heavy snow  Heavy precipitations  Wind > 20 kt







- Airport Elevation : 7316 ft
- IATA code : MEX


MMMX - Licenciado Benito Juarez International

CURRENT METAR :
  • 212144Z 01008KT 10SM BKN025 24/07 A3023 NOSIG RMK 8/400 ISOL MDT CU

EXPIRED METARs :
  • 212051Z 36005KT 10SM SCT025 24/07 A3025 NOSIG RMK SLP068 57028 910 8/400 ISOL MDT CU
  • 211945Z 03008KT 10SM FEW020 24/07 A3028 NOSIG RMK 8/100 HZY
  • 211938Z 06004KT 8SM FEW020 24/08 A3029 NOSIG RMK 8/100 HZY

TAF TAF MMMX
Valid from the 21 at 18:00 until the 23 at 00:00 UTC


211639Z 2118/2224 05010KT P6SM SCT025 TX25/2121Z TN14/2212Z
FM212200 06012KT P6SM VC RA BKN025CB BKN080
TEMPO 2123/2202 22015KT 4SM TSRA BKN020CB
FM220300 06010KT P6SM SCT015 BKN100
TEMPO 2212/2216 BKN020
FM222100 04010KT P6SM BKN025
PROB40 2222/2224 5SM TSRA BKN015CB
No reported NOTAMs for that airfield.



MET'MAP, your aeronautical weather chart ! - Copyright ORBIFLY December 2007 - Disclaimer

ORBIFLY MET'MAP TEAM :

Programming & Development : Alexandra Zaïnal
Concept & Development : Baudouin d'Aumeries
Co-Development & Prog : Marc-Olivier Méhu
Technical & hardware support : Manuel Goepfert

Contact : metmap@orbifly.com




SOURCES & CREDITS :

   NOAA       Earth
Advisory